Flight Number: EUR2285 Duration: 2:00
Departure: Madeira Funchal (LPMA) at 18:15 Distance: 642 Nm
Arrival: Porto Airport (LPPR) at 20:15 Equipment: A321

Weather Information
Aeroporto Da Madeira, Portugal (LPMA) 32-41-52N 016-46-28W May 23, 2018 - 08:30 PM EDT / 2018.05.24 0030 UTC
Wind: from the NNW (330 degrees) at 14 MPH (12 KT) (direction variable):0
Visibility: greater than 7 mile(s):0
Sky conditions: partly cloudy Temperature: 62 F (17 C) Dew Point: 50 F (10 C) Relative Humidity: 63% Pressure (altimeter): 30.00 in. Hg (1016 hPa)
ob: LPMA 240030Z 33012KT 280V010 9999 SCT015 17/10 Q1016 cycle: 0
Sunrise: 06:05 Sunset: 20:02 (UTC)

Porto / Pedras Rubras, Portugal (LPPR) 41-14N 008-41W 77M May 23, 2018 - 08:30 PM EDT / 2018.05.24 0030 UTC
Wind: Calm:0
Visibility: 3 mile(s):0
Sky conditions: mostly clear Weather: mist Temperature: 59 F (15 C) Dew Point: 57 F (14 C) Relative Humidity: 93% Pressure (altimeter): 29.97 in. Hg (1015 hPa)
ob: LPPR 240030Z 00000KT 4900 BR FEW002 15/14 Q1015 cycle: 0
Sunrise: 05:11 Sunset: 19:51 (UTC)

TAF:2018/05/23 18:18 TAF LPPR 231700Z 2318/2418 32010KT CAVOK BECMG 2319/2322 VRB03KT TEMPO 2403/2406 5000 BR FEW005 BECMG 2410/2412 25005KT 9999 FEW020 TEMPO 2410/2418 8000 SHRA BKN015 FEW020TCU BECMG 2412/2414 31007KT PROB30 TEMPO 2412/2418 3000 TSRA SCT020CB

Previous Pireps for this route
Date Aircraft Flight time Fuel used Landing rate On time
2013-09-05A32101.4311937-451No
2013-10-03A32101.4911876-68Yes
2014-10-10A32101.4010109-231Yes
2014-10-19A32101.4410265-178No
2015-01-01A32101.5010644-155Yes
2015-10-23A32101.4910185-219Yes
(pireps marked green are flown by you)

Route map